Informes de METAR cercanos

 

LEXJ - Santander/Parayas, Spain
Distance from station: ESE 6km
Actualización: 30/09/2020 04:00
Despejado
Despejado
 Viento del varies
Viento: varies 2 km/h
Temperatura: 12°C
Rocío: 11°C
Humedad: 94%
Barómetro: 1017 hPa
Clouds: Despejado
Visibilidad: 6 km
2020/09/30 02:00 LEXJ 300200Z AUTO VRB01KT 6000 NCD 12/11 Q1017
LEBB - Bilbao/Sondica, Spain
Distance from station: ESE 80km
Actualización: 30/09/2020 04:00
Despejado
Despejado
 Viento del E
Viento: E 6 km/h
Temperatura: 11°C
Rocío: 11°C
Humedad: 100%
Barómetro: 1017 hPa
Resumen: Despejado
Visibilidad: greater than 10 km
2020/09/30 02:00 LEBB 300200Z AUTO 09003KT 050V120 CAVOK 11/11 Q1017
 
LEBL - Barcelona Airpor, Spain
Distance from station: ESE 726km
Actualización: 30/09/2020 04:00
Few Clouds
Few Clouds
 Viento del NNO
Viento: NNO 13 km/h
Temperatura: 16°C
Rocío: 12°C
Humedad: 77%
Barómetro: 1016 hPa
Clouds: Few Clouds
Visibilidad: 10 km
Cloud details: Few Clouds 762 m
2020/09/30 02:00 LEBL 300200Z 33007KT 9999 FEW025 16/12 Q1016 NOSIG
LEMD - Madrid/Barajas, Spain
Distance from station: S 325km
Actualización: 30/09/2020 04:00
Despejado
Despejado
 Viento del varies
Viento: varies 4 km/h
Temperatura: 11°C
Rocío: 6°C
Humedad: 72%
Barómetro: 1018 hPa
Resumen: Despejado
Visibilidad: greater than 10 km
2020/09/30 02:00 LEMD 300200Z VRB02KT CAVOK 11/06 Q1018 NOSIG
 
LPPT - Lisbon/Portela, Portugal
Distance from station: SO 663km
Actualización: 30/09/2020 04:00
Despejado
Despejado
 Viento del NO
Viento: NO 19 km/h
Temperatura: 16°C
Rocío: 13°C
Humedad: 83%
Barómetro: 1017 hPa
Resumen: Despejado
Visibilidad: greater than 10 km
2020/09/30 02:00 LPPT 300200Z 32010KT CAVOK 16/13 Q1017
LECO - La Coruna/Alvedr, Spain
Distance from station: O 349km
Actualización: 30/09/2020 04:00
Mist, Patches of, Niebla, Muy nuboso
Mist, Patches of, Niebla, Muy nuboso
 Viento del S
Viento: S 4 km/h
Temperatura: 11°C
Rocío: 11°C
Humedad: 100%
Barómetro: 1018 hPa
Resumen: Mist, Patches of, Niebla
Clouds: Muy nuboso
Visibilidad: 5 km
Cloud details: Muy nuboso 701 m
Muy nuboso 914 m
2020/09/30 02:00 LECO 300200Z AUTO 19002KT 4900 0900SW BR BCFG BKN023 BKN030 11/11 Q1018
 
LEST - Santiago/Labacol, Spain
Distance from station: O 358km
Actualización: 30/09/2020 04:10
Patches of fog, Parcialmente nuboso
Patches of fog, Parcialmente nuboso
 Viento del ONO
Viento: ONO 6 km/h
Temperatura: 9°C
Rocío: 8°C
Humedad: 94%
Barómetro: 1018 hPa
Resumen: Patches of Fog
Clouds: Parcialmente nuboso
Visibilidad: 1 km
Cloud details: Parcialmente nuboso 30 m
2020/09/30 02:10 LEST 300210Z 30003KT 1200 0200NW R17/0275D R35/1900N BCFG SCT001 09/08 Q1018 TEMPO 0350 FG VV001
EBBR - Brussels International Airport, Belgium
Distance from station: O 1339km
Actualización: 30/09/2020 03:50
Despejado
Despejado
 Viento del SSO
Viento: SSO 7 km/h
Temperatura: 14°C
Rocío: 13°C
Humedad: 94%
Barómetro: 1016 hPa
Resumen: Despejado
Visibilidad: greater than 10 km
2020/09/30 01:50 EBBR 300150Z 20004KT CAVOK 14/13 Q1016 NOSIG